Airfield :
LOGIN :

Register | Disclaimer

   EN    FR    IT 

 










Legend :    VFR   Marginal VFR   IFR   Intensive IFR   Very Intensive IFR
Visi :
Ceiling :
>= 8 km
>= 3000ft
5 to 8 km
1000 to 3000 ft
1500m to 5 km
500 to 1000 ft
800 to 1500m
200 to 500 ft
< 800m
< 200 ft
Symbols :   Thunderstorms  Fog  Heavy snow  Heavy precipitations  Wind > 20 kt
SIGMETs :     Misc.  Thunderstorms  Icing  Turbulence  Mountain Waves  Volcanic Ashes






- Airport Elevation : 209 ft
- IATA code : CLY


LFKC - Calvi

CURRENT METAR :
  • 171700Z AUTO 19008KT 9999 BKN045/// BKN066/// BKN084/// ///CB 11/06 Q1006 TEMPO SHRA BECMG 21015G25KT

EXPIRED METARs :
  • 171630Z AUTO 19011KT 9999 BKN043/// BKN054/// BKN068/// ///CB 12/06 Q1006 TEMPO SHRA BECMG 21015G25KT
  • 171600Z AUTO 20011KT 9999 SCT045/// BKN060/// BKN074/// ///TCU 12/05 Q1006 TEMPO SHRA BECMG 21015G25KT
  • 171530Z AUTO 21011KT 170V260 9999 BKN044 BKN052 BKN068 12/05 Q1006 TEMPO SHRA SCT025TCU BKN040 BECMG 21015G25KT
  • 171500Z AUTO 20012G23KT 170V240 9999 BKN046 BKN062 BKN082 12/05 Q1006 TEMPO SHRA SCT025TCU BKN040
  • 171430Z AUTO 21016G32KT 180V250 9999 SCT043 BKN049 BKN062 13/05 Q1006 TEMPO SHRA SCT020TCU BKN030

TAF TAF LFKC
Valid from the 17 at 15:00 until the 18 at 15:00 UTC


171400Z 1715/1815 21015G25KT 9999 FEW040TCU SCT050 TX14/1715Z TN09/1804Z
TEMPO 1715/1719 SHRA SCT025TCU BKN040
FM180300 18010KT 9999 SCT045
BECMG 1806/1808 VRB02KT SCT050 BKN090
TEMPO 1810/1815 SHRA SCT030CB BKN050
PROB30 1812/1815 VRB12G22KT 4000 TSRA BKN025CB BKN035
ATIS : +33 4 95 65 82 49



MET'MAP, your aeronautical weather chart ! - Copyright ORBIFLY December 2007 - Disclaimer

ORBIFLY MET'MAP TEAM :

Programming & Development : Alexandra Zaïnal
Concept & Development : Baudouin d'Aumeries
Co-Development & Prog : Marc-Olivier Méhu
Technical & hardware support : Manuel Goepfert

Contact : metmap@orbifly.com




SOURCES & CREDITS :

   NOAA